createdAt,value
2024-04-16T00:00:38.429Z,58.12
2024-04-16T00:03:06.041Z,58.31
2024-04-16T00:05:33.130Z,58.13
2024-04-16T00:08:00.693Z,58.34
2024-04-16T00:10:27.839Z,58.38
2024-04-16T00:12:54.546Z,58.50
2024-04-16T00:15:21.586Z,58.43
2024-04-16T00:17:48.386Z,58.58
2024-04-16T00:20:15.209Z,58.36
2024-04-16T00:22:42.544Z,58.41
2024-04-16T00:25:10.099Z,58.43
2024-04-16T00:27:36.920Z,58.64
2024-04-16T00:30:04.247Z,58.52
2024-04-16T00:32:31.151Z,58.78
2024-04-16T00:34:57.937Z,58.57
2024-04-16T00:37:24.783Z,58.53
2024-04-16T00:39:51.550Z,58.50
2024-04-16T00:42:18.291Z,58.75
2024-04-16T00:44:45.123Z,58.75
2024-04-16T00:47:13.937Z,58.63
2024-04-16T00:49:41.087Z,58.91
2024-04-16T00:52:08.227Z,58.83
2024-04-16T00:54:35.704Z,58.64
2024-04-16T00:57:04.592Z,58.50
2024-04-16T00:59:32.849Z,58.67
2024-04-16T01:01:59.555Z,58.50
2024-04-16T01:04:26.877Z,58.25
2024-04-16T01:06:53.804Z,58.52
2024-04-16T01:09:20.639Z,58.66
2024-04-16T01:11:50.251Z,58.48
2024-04-16T01:14:19.170Z,58.71
2024-04-16T01:16:45.986Z,58.61
2024-04-16T01:19:12.817Z,58.71
2024-04-16T01:21:39.627Z,58.45
2024-04-16T01:24:06.516Z,58.84
2024-04-16T01:26:33.269Z,58.77
2024-04-16T01:29:00.019Z,58.79
2024-04-16T01:31:27.326Z,58.40
2024-04-16T01:33:54.056Z,58.44
2024-04-16T01:36:20.890Z,58.48
2024-04-16T01:38:47.590Z,58.78
2024-04-16T01:41:14.413Z,58.60
2024-04-16T01:43:41.152Z,58.67
2024-04-16T01:46:09.254Z,58.30
2024-04-16T01:48:36.467Z,58.79
2024-04-16T01:51:03.667Z,58.24
2024-04-16T01:53:30.454Z,58.68
2024-04-16T01:56:01.226Z,58.50
2024-04-16T01:58:28.076Z,58.49
2024-04-16T02:01:02.067Z,58.60
2024-04-16T02:03:29.068Z,58.63
2024-04-16T02:05:59.420Z,58.62
2024-04-16T02:08:26.477Z,58.66
2024-04-16T02:10:54.728Z,58.69
2024-04-16T02:13:21.964Z,58.92
2024-04-16T02:15:49.297Z,58.85
2024-04-16T02:18:16.178Z,58.54
2024-04-16T02:20:42.966Z,59.04
2024-04-16T02:23:09.876Z,59.14
2024-04-16T02:25:36.759Z,58.94
2024-04-16T02:28:04.176Z,59.04
2024-04-16T02:30:31.512Z,58.79
2024-04-16T02:32:58.305Z,59.28
2024-04-16T02:35:25.074Z,59.40
2024-04-16T02:37:51.779Z,59.10
2024-04-16T02:40:18.563Z,58.91
2024-04-16T02:42:45.325Z,58.50
2024-04-16T02:45:12.033Z,58.85
2024-04-16T02:47:38.859Z,58.79
2024-04-16T02:50:06.129Z,59.14
2024-04-16T02:52:33.044Z,59.02
2024-04-16T02:54:59.871Z,59.10
2024-04-16T02:57:26.613Z,58.88
2024-04-16T02:59:53.342Z,58.95
2024-04-16T03:02:20.218Z,59.23
2024-04-16T03:04:47.966Z,59.31
2024-04-16T03:07:14.844Z,59.31
2024-04-16T03:09:41.649Z,59.32
2024-04-16T03:12:08.651Z,59.08
2024-04-16T03:14:35.345Z,59.19
2024-04-16T03:17:02.090Z,58.95
2024-04-16T03:19:29.202Z,59.08
2024-04-16T03:21:56.140Z,58.95
2024-04-16T03:24:23.039Z,59.14
2024-04-16T03:26:49.903Z,59.44
2024-04-16T03:29:16.954Z,59.53
2024-04-16T03:31:43.759Z,59.18
2024-04-16T03:34:10.592Z,59.17
2024-04-16T03:36:37.367Z,59.40
2024-04-16T03:39:04.250Z,59.23
2024-04-16T03:41:30.967Z,59.18
2024-04-16T03:43:57.718Z,59.32
2024-04-16T03:46:24.558Z,59.34
2024-04-16T03:48:51.365Z,59.44
2024-04-16T03:51:18.079Z,59.72
2024-04-16T03:53:45.119Z,59.67
2024-04-16T03:56:11.839Z,59.93
2024-04-16T03:58:46.063Z,60.14
2024-04-16T04:01:14.372Z,59.99
2024-04-16T04:03:43.639Z,60.11
2024-04-16T04:06:11.750Z,60.23
2024-04-16T04:08:38.510Z,60.37
2024-04-16T04:11:05.616Z,60.56
2024-04-16T04:13:32.525Z,60.99
2024-04-16T04:15:59.335Z,60.64
2024-04-16T04:18:26.119Z,60.80
2024-04-16T04:20:53.103Z,61.00
2024-04-16T04:23:19.877Z,61.54
2024-04-16T04:25:46.627Z,61.59
2024-04-16T04:28:13.411Z,62.08
2024-04-16T04:30:40.135Z,62.14
2024-04-16T04:33:06.974Z,62.24
2024-04-16T04:35:33.762Z,62.34
2024-04-16T04:38:00.644Z,62.70
2024-04-16T04:40:27.844Z,63.15
2024-04-16T04:42:56.596Z,63.18
2024-04-16T04:45:23.404Z,63.42
2024-04-16T04:47:50.354Z,63.73
2024-04-16T04:50:17.238Z,64.13
2024-04-16T04:52:44.024Z,64.17
2024-04-16T04:55:10.991Z,64.31
2024-04-16T04:57:37.844Z,64.58
2024-04-16T05:00:05.329Z,64.62
2024-04-16T05:02:32.082Z,65.17
2024-04-16T05:04:58.829Z,64.97
2024-04-16T05:07:25.586Z,64.93
2024-04-16T05:09:54.566Z,65.40
2024-04-16T05:12:21.497Z,65.44
2024-04-16T05:14:48.294Z,65.41
2024-04-16T05:17:15.221Z,65.57
2024-04-16T05:19:42.023Z,65.87
2024-04-16T05:22:08.850Z,65.89
2024-04-16T05:24:35.630Z,65.93
2024-04-16T05:27:02.377Z,66.14
2024-04-16T05:29:29.161Z,66.06
2024-04-16T05:31:55.929Z,66.02
2024-04-16T05:34:23.065Z,66.35
2024-04-16T05:36:49.827Z,66.15
2024-04-16T05:39:16.525Z,66.50
2024-04-16T05:41:43.492Z,66.71
2024-04-16T05:44:10.263Z,66.52
2024-04-16T05:46:38.439Z,66.49
2024-04-16T05:49:06.356Z,66.88
2024-04-16T05:51:33.153Z,66.85
2024-04-16T05:54:01.855Z,66.87
2024-04-16T05:56:28.770Z,67.03
2024-04-16T05:58:55.485Z,67.16
2024-04-16T06:01:22.357Z,67.32
2024-04-16T06:03:49.177Z,67.36
2024-04-16T06:06:15.989Z,67.13
2024-04-16T06:08:42.743Z,67.26
2024-04-16T06:11:09.653Z,67.37
2024-04-16T06:13:39.168Z,67.53
2024-04-16T06:16:06.973Z,67.12
2024-04-16T06:18:34.026Z,67.39
2024-04-16T06:21:00.766Z,67.50
2024-04-16T06:23:28.853Z,67.35
2024-04-16T06:25:55.617Z,67.50
2024-04-16T06:28:22.827Z,67.48
2024-04-16T06:30:49.592Z,67.37
2024-04-16T06:33:16.991Z,67.83
2024-04-16T06:35:43.839Z,67.75
2024-04-16T06:38:10.564Z,67.49
2024-04-16T06:40:37.650Z,67.88
2024-04-16T06:43:04.608Z,67.97
2024-04-16T06:45:31.483Z,67.87
2024-04-16T06:47:58.307Z,67.62
2024-04-16T06:50:25.094Z,67.57
2024-04-16T06:52:56.078Z,67.83
2024-04-16T06:55:23.651Z,67.91
2024-04-16T06:57:52.844Z,67.49
2024-04-16T07:00:22.870Z,66.07
2024-04-16T07:02:49.708Z,65.03
2024-04-16T07:05:16.606Z,65.06
2024-04-16T07:07:43.870Z,65.53
2024-04-16T07:10:13.401Z,66.16
2024-04-16T07:12:40.267Z,67.49
2024-04-16T07:15:07.373Z,67.90
2024-04-16T07:17:34.242Z,67.82
2024-04-16T07:20:01.048Z,67.30
2024-04-16T07:22:27.860Z,67.01
2024-04-16T07:24:58.012Z,67.19
2024-04-16T07:27:24.762Z,66.93
2024-04-16T07:29:51.578Z,67.09
2024-04-16T07:32:18.496Z,67.55
2024-04-16T07:34:45.300Z,67.66
2024-04-16T07:37:12.084Z,67.33
2024-04-16T07:39:38.923Z,67.65
2024-04-16T07:42:05.779Z,67.11
2024-04-16T07:44:32.528Z,66.55
2024-04-16T07:47:01.458Z,66.57
2024-04-16T07:49:28.374Z,66.57
2024-04-16T07:51:55.133Z,66.80
2024-04-16T07:54:21.890Z,67.25
2024-04-16T07:56:48.645Z,67.29
2024-04-16T07:59:15.611Z,67.88
2024-04-16T08:01:59.032Z,68.08
2024-04-16T08:04:34.453Z,68.17
2024-04-16T08:07:01.329Z,68.67
2024-04-16T08:09:28.054Z,68.28
2024-04-16T08:11:54.780Z,69.67
2024-04-16T08:14:23.371Z,69.57
2024-04-16T08:16:55.363Z,68.91
2024-04-16T08:19:22.186Z,69.07
2024-04-16T08:22:26.737Z,69.16
2024-04-16T08:24:53.993Z,68.71
2024-04-16T08:27:24.600Z,68.58
2024-04-16T08:29:53.114Z,68.80
2024-04-16T08:32:20.293Z,68.79
2024-04-16T08:34:47.146Z,68.94
2024-04-16T08:37:14.032Z,68.31
2024-04-16T08:39:41.205Z,68.17
2024-04-16T08:42:09.629Z,68.05
2024-04-16T08:44:37.345Z,68.41
2024-04-16T08:47:05.296Z,68.37
2024-04-16T08:49:32.357Z,68.34
2024-04-16T08:52:04.677Z,68.56
2024-04-16T08:54:32.993Z,68.50
2024-04-16T08:56:59.738Z,68.49
2024-04-16T08:59:27.410Z,67.67
2024-04-16T09:01:56.175Z,67.70
2024-04-16T09:04:23.229Z,67.89
2024-04-16T09:06:52.543Z,67.20
2024-04-16T09:09:19.333Z,67.24
2024-04-16T09:11:46.878Z,67.18
2024-04-16T09:14:15.537Z,66.96
2024-04-16T09:16:42.608Z,67.16
2024-04-16T09:19:11.399Z,67.44
2024-04-16T09:21:41.194Z,67.40
2024-04-16T09:24:08.243Z,67.63
2024-04-16T09:26:38.654Z,67.77
2024-04-16T09:29:05.672Z,67.95
2024-04-16T09:31:33.443Z,68.25
2024-04-16T09:34:08.212Z,68.38
2024-04-16T09:36:36.168Z,68.59
2024-04-16T09:39:04.813Z,68.33
2024-04-16T09:41:35.488Z,68.52
2024-04-16T09:44:07.415Z,68.84
2024-04-16T09:46:36.278Z,68.57
2024-04-16T09:49:03.737Z,68.86
2024-04-16T09:51:31.200Z,69.04
2024-04-16T09:53:58.340Z,69.47
2024-04-16T09:56:25.555Z,69.19
2024-04-16T09:58:55.139Z,68.85
2024-04-16T10:01:24.850Z,68.22
2024-04-16T10:03:53.867Z,68.36
2024-04-16T10:06:20.733Z,68.17
2024-04-16T10:08:50.173Z,68.44
2024-04-16T10:11:25.195Z,68.15
2024-04-16T10:13:58.361Z,68.07
2024-04-16T10:16:27.436Z,68.45
2024-04-16T10:18:58.068Z,68.26
2024-04-16T10:21:27.138Z,68.42
2024-04-16T10:24:04.606Z,68.40
2024-04-16T10:26:31.650Z,68.17
2024-04-16T10:29:06.226Z,68.45
2024-04-16T10:31:39.674Z,68.59
2024-04-16T10:34:06.614Z,68.56
2024-04-16T10:36:34.750Z,68.71
2024-04-16T10:39:11.556Z,68.68
2024-04-16T10:41:38.266Z,68.80
2024-04-16T10:44:05.137Z,68.77
2024-04-16T10:46:32.912Z,68.80
2024-04-16T10:49:00.734Z,69.16
2024-04-16T10:51:30.477Z,69.39
2024-04-16T10:54:09.371Z,68.80
2024-04-16T10:56:39.934Z,69.46
2024-04-16T10:59:07.719Z,69.26
2024-04-16T11:01:35.421Z,69.57
2024-04-16T11:04:12.874Z,69.44
2024-04-16T11:06:41.351Z,69.46
2024-04-16T11:09:08.523Z,69.41
2024-04-16T11:11:36.115Z,69.38
2024-04-16T11:14:03.032Z,69.06
2024-04-16T11:16:29.825Z,69.04
2024-04-16T11:18:59.928Z,69.42
2024-04-16T11:21:31.207Z,69.45
2024-04-16T11:23:58.716Z,69.39
2024-04-16T11:26:25.905Z,69.42
2024-04-16T11:28:52.986Z,69.47
2024-04-16T11:31:19.878Z,69.54
2024-04-16T11:33:48.232Z,69.41
2024-04-16T11:38:45.131Z,69.90
2024-04-16T11:41:13.798Z,69.91
2024-04-16T11:43:43.670Z,70.21
2024-04-16T11:46:13.449Z,69.66
2024-04-16T11:48:40.229Z,69.94
2024-04-16T11:51:10.889Z,69.82
2024-04-16T11:53:38.930Z,69.96
2024-04-16T11:56:12.649Z,69.84
2024-04-16T11:58:43.894Z,69.68
2024-04-16T12:01:11.538Z,69.74
2024-04-16T12:03:38.631Z,69.68
2024-04-16T12:06:05.821Z,69.86
2024-04-16T12:08:32.552Z,69.61
2024-04-16T12:10:59.620Z,69.56
2024-04-16T12:13:26.460Z,69.36
2024-04-16T12:15:53.180Z,69.37
2024-04-16T12:18:19.963Z,69.02
2024-04-16T12:20:47.215Z,69.42
2024-04-16T12:23:13.928Z,69.21
2024-04-16T12:25:40.746Z,69.35
2024-04-16T12:28:07.632Z,68.79
2024-04-16T12:30:34.405Z,69.06
2024-04-16T12:33:10.815Z,69.43
2024-04-16T12:35:42.611Z,69.21
2024-04-16T12:38:09.381Z,68.81
2024-04-16T12:40:36.706Z,68.62
2024-04-16T12:43:03.984Z,68.63
2024-04-16T12:45:30.694Z,68.81
2024-04-16T12:47:57.545Z,68.47
2024-04-16T12:50:24.320Z,68.77
2024-04-16T12:52:51.117Z,68.38
2024-04-16T12:55:19.111Z,67.99
2024-04-16T12:57:45.964Z,67.67
2024-04-16T13:00:12.916Z,68.13
2024-04-16T13:02:39.752Z,67.73
2024-04-16T13:05:06.804Z,68.05
2024-04-16T13:07:33.574Z,68.07
2024-04-16T13:10:01.293Z,68.02
2024-04-16T13:12:28.176Z,68.13
2024-04-16T13:14:54.900Z,67.57
2024-04-16T13:17:21.889Z,67.25
2024-04-16T13:19:53.352Z,67.08
2024-04-16T13:22:21.029Z,66.84
2024-04-16T13:24:48.013Z,67.30
2024-04-16T13:27:14.790Z,66.74
2024-04-16T13:29:41.746Z,67.06
2024-04-16T13:32:08.654Z,66.87
2024-04-16T13:34:35.587Z,66.76
2024-04-16T13:37:02.449Z,66.77
2024-04-16T13:39:29.262Z,66.94
2024-04-16T13:41:56.522Z,66.87
2024-04-16T13:44:23.457Z,67.05
2024-04-16T13:46:50.289Z,67.01
2024-04-16T13:49:18.421Z,67.00
2024-04-16T13:51:45.181Z,67.75
2024-04-16T13:54:11.890Z,67.85
2024-04-16T13:56:38.682Z,67.62
2024-04-16T13:59:05.423Z,67.89
2024-04-16T14:01:33.980Z,67.40
2024-04-16T14:04:00.829Z,67.81
2024-04-16T14:06:27.931Z,67.98
2024-04-16T14:08:54.670Z,67.90
2024-04-16T14:11:21.499Z,67.64
2024-04-16T14:13:48.295Z,67.99
2024-04-16T14:16:28.552Z,67.08
2024-04-16T14:18:55.415Z,67.28
2024-04-16T14:21:22.473Z,67.29
2024-04-16T14:23:49.287Z,67.42
2024-04-16T14:26:17.372Z,67.10
2024-04-16T14:28:45.166Z,67.08
2024-04-16T14:31:14.242Z,67.15
2024-04-16T14:33:42.257Z,67.08
2024-04-16T14:36:09.205Z,67.13
2024-04-16T14:38:35.966Z,67.80
2024-04-16T14:41:02.785Z,67.15
2024-04-16T14:43:30.375Z,67.38
2024-04-16T14:45:57.270Z,67.47
2024-04-16T14:48:24.154Z,67.15
2024-04-16T14:50:51.079Z,67.09
2024-04-16T14:53:19.878Z,67.36
2024-04-16T14:55:51.298Z,67.32
2024-04-16T14:58:18.167Z,67.52
2024-04-16T15:00:45.433Z,67.34
2024-04-16T15:03:12.955Z,67.20
2024-04-16T15:05:41.347Z,67.55
2024-04-16T15:08:11.304Z,67.18
2024-04-16T15:10:38.155Z,67.27
2024-04-16T15:13:09.112Z,67.08
2024-04-16T15:15:35.946Z,67.23
2024-04-16T15:18:03.374Z,67.10
2024-04-16T15:20:30.395Z,67.04
2024-04-16T15:22:58.634Z,67.18
2024-04-16T15:25:25.591Z,67.27
2024-04-16T15:27:57.039Z,67.33
2024-04-16T15:30:23.783Z,67.38
2024-04-16T15:32:50.546Z,67.38
2024-04-16T15:35:17.464Z,67.40
2024-04-16T15:37:44.495Z,67.48
2024-04-16T15:40:17.396Z,67.09
2024-04-16T15:42:51.168Z,67.07
2024-04-16T15:45:18.020Z,67.27
2024-04-16T15:47:47.714Z,66.67
2024-04-16T15:50:17.283Z,66.65
2024-04-16T15:52:46.406Z,67.09
2024-04-16T15:55:14.300Z,66.82
2024-04-16T15:57:41.122Z,67.11
2024-04-16T16:00:08.430Z,67.05
2024-04-16T16:02:35.249Z,67.19
2024-04-16T16:05:02.140Z,67.29
2024-04-16T16:07:29.333Z,67.11
2024-04-16T16:09:56.543Z,67.45
2024-04-16T16:12:23.333Z,67.63
2024-04-16T16:14:50.133Z,67.59
2024-04-16T16:17:16.884Z,67.97
2024-04-16T16:19:43.857Z,68.08
2024-04-16T16:22:11.714Z,68.12
2024-04-16T16:24:38.454Z,68.53
2024-04-16T16:27:05.376Z,68.04
2024-04-16T16:29:32.115Z,68.07
2024-04-16T16:32:01.892Z,68.44
2024-04-16T16:34:28.754Z,68.29
2024-04-16T16:36:55.705Z,68.50
2024-04-16T16:39:22.418Z,68.04
2024-04-16T16:41:52.409Z,68.05
2024-04-16T16:44:19.165Z,68.58
2024-04-16T16:46:49.132Z,68.19
2024-04-16T16:49:15.960Z,68.78
2024-04-16T16:51:42.770Z,68.34
2024-04-16T16:54:09.558Z,68.83
2024-04-16T16:56:36.288Z,68.53
2024-04-16T16:59:03.045Z,68.63
2024-04-16T17:01:29.819Z,68.78
2024-04-16T17:03:56.667Z,68.88
2024-04-16T17:06:23.413Z,68.74
2024-04-16T17:08:50.136Z,69.05
2024-04-16T17:11:17.136Z,68.74
2024-04-16T17:13:44.438Z,68.71
2024-04-16T17:16:11.259Z,68.44
2024-04-16T17:18:40.113Z,68.62
2024-04-16T17:21:06.923Z,68.57
2024-04-16T17:23:33.779Z,68.68
2024-04-16T17:26:00.600Z,68.47
2024-04-16T17:28:27.433Z,68.57
2024-04-16T17:30:54.239Z,68.43
2024-04-16T17:33:21.284Z,68.66
2024-04-16T17:35:48.719Z,68.81
2024-04-16T17:38:16.098Z,68.49
2024-04-16T17:40:42.919Z,68.66
2024-04-16T17:43:09.705Z,68.60
2024-04-16T17:45:39.121Z,68.60
2024-04-16T17:48:07.962Z,68.83
2024-04-16T17:50:34.808Z,68.56
2024-04-16T17:53:01.616Z,68.83
2024-04-16T17:55:28.522Z,68.87
2024-04-16T17:57:55.313Z,68.57
2024-04-16T18:00:34.940Z,68.71
2024-04-16T18:03:07.079Z,68.79
2024-04-16T18:05:35.260Z,69.01
2024-04-16T18:08:05.083Z,68.76
2024-04-16T18:10:32.192Z,68.69
2024-04-16T18:12:59.189Z,68.81
2024-04-16T18:15:26.075Z,69.26
2024-04-16T18:17:52.918Z,68.86
2024-04-16T18:20:19.782Z,68.87
2024-04-16T18:22:47.110Z,69.04
2024-04-16T18:25:15.903Z,69.18
2024-04-16T18:27:43.339Z,69.19
2024-04-16T18:30:10.429Z,69.20
2024-04-16T18:32:37.333Z,68.62
2024-04-16T18:35:04.473Z,69.07
2024-04-16T18:37:31.220Z,68.76
2024-04-16T18:39:58.037Z,68.35
2024-04-16T18:42:24.810Z,68.30
2024-04-16T18:44:51.790Z,68.55
2024-04-16T18:47:18.949Z,68.34
2024-04-16T18:49:46.213Z,68.15
2024-04-16T18:52:13.121Z,68.11
2024-04-16T18:54:40.410Z,68.27
2024-04-16T18:57:07.128Z,67.66
2024-04-16T18:59:33.886Z,67.87
2024-04-16T19:02:01.603Z,67.51
2024-04-16T19:04:34.026Z,67.58
2024-04-16T19:07:01.182Z,67.64
2024-04-16T19:09:27.949Z,67.39
2024-04-16T19:11:54.768Z,67.19
2024-04-16T19:14:21.889Z,67.18
2024-04-16T19:16:50.203Z,67.22
2024-04-16T19:19:17.149Z,67.43
2024-04-16T19:21:44.262Z,67.19
2024-04-16T19:24:11.155Z,67.25
2024-04-16T19:26:37.917Z,67.15
2024-04-16T19:29:04.808Z,66.83
2024-04-16T19:31:34.149Z,67.17
2024-04-16T19:34:00.981Z,66.37
2024-04-16T19:36:27.806Z,66.53
2024-04-16T19:38:54.713Z,66.50
2024-04-16T19:41:21.563Z,66.42
2024-04-16T19:43:50.127Z,66.33
2024-04-16T19:46:16.964Z,66.34
2024-04-16T19:48:43.940Z,66.31
2024-04-16T19:51:10.827Z,65.72
2024-04-16T19:53:37.639Z,65.87
2024-04-16T19:56:04.654Z,66.00
2024-04-16T19:58:37.862Z,66.04
2024-04-16T20:01:10.084Z,65.99
2024-04-16T20:03:38.174Z,65.92
2024-04-16T20:06:05.945Z,65.86
2024-04-16T20:08:32.790Z,65.45
2024-04-16T20:11:02.487Z,65.73
2024-04-16T20:13:29.769Z,65.69
2024-04-16T20:15:56.978Z,65.41
2024-04-16T20:18:24.235Z,65.67
2024-04-16T20:21:04.610Z,65.58
2024-04-16T20:23:32.583Z,65.58
2024-04-16T20:26:06.339Z,65.06
2024-04-16T20:28:37.716Z,64.98
2024-04-16T20:31:05.015Z,64.92
2024-04-16T20:33:32.340Z,64.51
2024-04-16T20:36:03.570Z,64.54
2024-04-16T20:38:31.412Z,64.56
2024-04-16T20:40:59.336Z,64.37
2024-04-16T20:43:26.215Z,64.35
2024-04-16T20:45:53.173Z,64.31
2024-04-16T20:48:21.708Z,64.03
2024-04-16T20:50:55.510Z,64.00
2024-04-16T20:53:26.443Z,63.78
2024-04-16T20:55:53.388Z,64.08
2024-04-16T20:58:21.498Z,63.85
2024-04-16T21:00:48.486Z,63.57
2024-04-16T21:03:15.479Z,63.48
2024-04-16T21:05:42.481Z,63.77
2024-04-16T21:08:09.523Z,63.52
2024-04-16T21:10:38.228Z,63.22
2024-04-16T21:13:05.475Z,63.43
2024-04-16T21:15:32.205Z,63.40
2024-04-16T21:17:59.328Z,63.39
2024-04-16T21:20:26.188Z,63.17
2024-04-16T21:22:52.935Z,63.33
2024-04-16T21:25:19.921Z,63.29
2024-04-16T21:27:46.939Z,63.34
2024-04-16T21:30:13.674Z,63.00
2024-04-16T21:32:40.519Z,63.48
2024-04-16T21:35:07.607Z,63.44
2024-04-16T21:37:34.395Z,63.17
2024-04-16T21:40:01.409Z,63.27
2024-04-16T21:42:28.145Z,63.27
2024-04-16T21:44:54.874Z,63.49
2024-04-16T21:47:22.301Z,63.36
2024-04-16T21:49:49.424Z,63.28
2024-04-16T21:52:17.608Z,63.49
2024-04-16T21:54:44.534Z,63.51
2024-04-16T21:57:11.545Z,63.15
2024-04-16T21:59:38.244Z,63.60
2024-04-16T22:02:05.169Z,63.24
2024-04-16T22:04:31.992Z,63.59
2024-04-16T22:06:58.776Z,63.74
2024-04-16T22:09:25.706Z,63.48
2024-04-16T22:11:52.590Z,63.32
2024-04-16T22:14:19.648Z,63.68
2024-04-16T22:16:46.569Z,63.43
2024-04-16T22:19:13.530Z,63.69
2024-04-16T22:21:40.206Z,63.39
2024-04-16T22:24:06.964Z,63.77
2024-04-16T22:26:33.710Z,63.86
2024-04-16T22:29:00.438Z,63.64
2024-04-16T22:31:27.203Z,64.17
2024-04-16T22:33:53.982Z,64.21
2024-04-16T22:36:23.023Z,63.99
2024-04-16T22:38:50.236Z,64.04
2024-04-16T22:41:17.094Z,64.03
2024-04-16T22:43:43.831Z,64.19
2024-04-16T22:46:12.311Z,64.08
2024-04-16T22:48:39.367Z,63.95
2024-04-16T22:51:06.157Z,64.04
2024-04-16T22:53:33.016Z,63.85
2024-04-16T22:56:00.023Z,63.71
2024-04-16T22:58:26.860Z,63.72
2024-04-16T23:00:53.730Z,63.78
2024-04-16T23:03:20.541Z,63.40
2024-04-16T23:05:47.507Z,63.61
2024-04-16T23:08:14.257Z,63.41
2024-04-16T23:10:42.061Z,63.36
2024-04-16T23:13:09.218Z,63.40
2024-04-16T23:15:36.375Z,63.61
2024-04-16T23:18:03.506Z,63.65
2024-04-16T23:20:34.916Z,63.92
2024-04-16T23:25:51.609Z,63.79
2024-04-16T23:28:18.510Z,63.70
2024-04-16T23:30:46.389Z,63.93
2024-04-16T23:33:13.195Z,63.91
2024-04-16T23:35:39.949Z,64.10
2024-04-16T23:38:06.701Z,64.14
2024-04-16T23:40:33.451Z,63.91
2024-04-16T23:43:00.231Z,64.18
2024-04-16T23:45:26.980Z,63.85
2024-04-16T23:47:53.788Z,64.18
2024-04-16T23:50:20.647Z,63.85
2024-04-16T23:52:47.974Z,63.95
2024-04-16T23:55:15.409Z,63.83
2024-04-16T23:57:42.145Z,63.99
